createdAt,value
2024-01-15T00:00:59.177Z,41.90
2024-01-15T00:03:48.109Z,39.70
2024-01-15T00:06:16.682Z,46.40
2024-01-15T00:08:44.878Z,41.70
2024-01-15T00:11:13.030Z,40.00
2024-01-15T00:13:41.116Z,40.50
2024-01-15T00:16:09.132Z,42.90
2024-01-15T00:18:37.620Z,39.50
2024-01-15T00:21:06.232Z,46.20
2024-01-15T00:23:34.283Z,11.30
2024-01-15T00:26:02.760Z,47.10
2024-01-15T00:28:30.988Z,39.40
2024-01-15T00:30:59.131Z,45.90
2024-01-15T00:33:27.419Z,43.50
2024-01-15T00:35:55.595Z,46.20
2024-01-15T00:38:23.812Z,45.90
2024-01-15T00:40:51.911Z,43.80
2024-01-15T00:43:20.566Z,42.40
2024-01-15T00:45:48.687Z,38.70
2024-01-15T00:48:17.079Z,12.30
2024-01-15T00:50:45.300Z,40.40
2024-01-15T00:53:13.466Z,42.10
2024-01-15T00:55:41.646Z,9.90
2024-01-15T00:58:09.680Z,11.20
2024-01-15T01:00:37.944Z,43.00
2024-01-15T01:03:06.312Z,39.90
2024-01-15T01:05:35.534Z,40.00
2024-01-15T01:08:03.777Z,36.40
2024-01-15T01:10:31.842Z,7.60
2024-01-15T01:12:59.985Z,43.50
2024-01-15T01:15:28.830Z,37.40
2024-01-15T01:17:57.021Z,41.30
2024-01-15T01:20:25.283Z,6.10
2024-01-15T01:22:53.441Z,35.60
2024-01-15T01:25:21.655Z,38.30
2024-01-15T01:27:49.924Z,7.80
2024-01-15T01:30:18.231Z,37.90
2024-01-15T01:32:46.375Z,34.40
2024-01-15T01:35:14.560Z,33.90
2024-01-15T01:37:42.621Z,34.50
2024-01-15T01:40:11.030Z,41.80
2024-01-15T01:42:39.120Z,34.50
2024-01-15T01:45:07.705Z,37.80
2024-01-15T01:47:36.334Z,34.40
2024-01-15T01:50:04.673Z,33.90
2024-01-15T01:52:33.323Z,36.50
2024-01-15T01:55:03.530Z,36.20
2024-01-15T01:57:35.264Z,36.80
2024-01-15T02:00:05.421Z,10.00
2024-01-15T02:02:34.719Z,34.40
2024-01-15T02:05:05.367Z,31.10
2024-01-15T02:07:36.126Z,30.00
2024-01-15T02:12:32.842Z,11.60
2024-01-15T02:15:01.036Z,29.80
2024-01-15T02:17:29.200Z,36.70
2024-01-15T02:19:57.459Z,33.60
2024-01-15T02:22:25.648Z,33.70
2024-01-15T02:24:53.986Z,28.50
2024-01-15T02:27:22.264Z,34.00
2024-01-15T02:29:50.729Z,30.80
2024-01-15T02:32:18.792Z,35.30
2024-01-15T02:34:47.144Z,8.60
2024-01-15T02:37:15.336Z,32.40
2024-01-15T02:39:43.426Z,33.50
2024-01-15T02:42:11.588Z,34.80
2024-01-15T02:44:39.721Z,30.70
2024-01-15T02:47:07.786Z,33.60
2024-01-15T02:49:36.094Z,30.30
2024-01-15T02:52:04.636Z,31.60
2024-01-15T02:54:32.721Z,37.40
2024-01-15T02:57:00.895Z,37.80
2024-01-15T02:59:28.957Z,31.80
2024-01-15T03:01:57.036Z,34.30
2024-01-15T03:04:25.222Z,32.50
2024-01-15T03:06:53.412Z,35.40
2024-01-15T03:09:21.585Z,33.70
2024-01-15T03:11:50.049Z,33.90
2024-01-15T03:14:18.077Z,32.40
2024-01-15T03:16:46.197Z,33.40
2024-01-15T03:19:14.438Z,30.60
2024-01-15T03:21:42.711Z,35.60
2024-01-15T03:24:10.864Z,35.20
2024-01-15T03:26:39.019Z,35.60
2024-01-15T03:29:07.469Z,32.00
2024-01-15T03:31:35.575Z,31.60
2024-01-15T03:34:03.745Z,31.70
2024-01-15T03:36:31.956Z,33.30
2024-01-15T03:39:00.020Z,29.60
2024-01-15T03:41:28.085Z,31.80
2024-01-15T03:43:56.157Z,35.50
2024-01-15T03:46:24.239Z,36.10
2024-01-15T03:48:52.624Z,31.70
2024-01-15T03:51:21.007Z,30.00
2024-01-15T03:53:49.199Z,31.50
2024-01-15T03:56:17.376Z,30.30
2024-01-15T03:58:45.469Z,29.40
2024-01-15T04:01:13.671Z,30.70
2024-01-15T04:03:41.994Z,29.70
2024-01-15T04:06:10.278Z,31.60
2024-01-15T04:08:38.368Z,29.00
2024-01-15T04:11:06.406Z,32.50
2024-01-15T04:13:34.943Z,32.20
2024-01-15T04:16:03.135Z,31.10
2024-01-15T04:18:31.204Z,30.90
2024-01-15T04:20:59.528Z,34.60
2024-01-15T04:23:27.641Z,33.20
2024-01-15T04:25:55.841Z,28.80
2024-01-15T04:28:24.076Z,30.00
2024-01-15T04:30:52.283Z,31.90
2024-01-15T04:33:20.569Z,32.80
2024-01-15T04:35:48.884Z,34.60
2024-01-15T04:38:17.038Z,29.10
2024-01-15T04:40:45.310Z,29.90
2024-01-15T04:43:13.503Z,29.30
2024-01-15T04:45:41.852Z,28.80
2024-01-15T04:48:10.094Z,29.50
2024-01-15T04:50:38.296Z,30.10
2024-01-15T04:53:07.507Z,25.30
2024-01-15T04:55:36.598Z,28.40
2024-01-15T04:58:04.887Z,31.10
2024-01-15T05:00:33.059Z,25.20
2024-01-15T05:03:01.205Z,29.10
2024-01-15T05:05:29.300Z,26.00
2024-01-15T05:07:58.165Z,23.20
2024-01-15T05:10:26.651Z,26.00
2024-01-15T05:12:54.838Z,27.00
2024-01-15T05:15:22.943Z,27.60
2024-01-15T05:17:51.170Z,21.80
2024-01-15T05:20:19.389Z,27.30
2024-01-15T05:22:47.613Z,25.40
2024-01-15T05:25:15.715Z,25.90
2024-01-15T05:27:43.873Z,29.10
2024-01-15T05:30:12.520Z,32.30
2024-01-15T05:32:41.031Z,29.20
2024-01-15T05:35:09.233Z,29.50
2024-01-15T05:37:37.449Z,34.00
2024-01-15T05:40:06.042Z,33.90
2024-01-15T05:42:34.225Z,31.30
2024-01-15T05:45:04.984Z,34.60
2024-01-15T05:50:03.117Z,34.90
2024-01-15T05:52:31.320Z,30.30
2024-01-15T05:54:59.474Z,33.40
2024-01-15T05:57:27.799Z,34.00
2024-01-15T05:59:55.948Z,32.10
2024-01-15T06:02:24.100Z,33.20
2024-01-15T06:04:52.302Z,33.70
2024-01-15T06:07:20.436Z,32.60
2024-01-15T06:09:48.621Z,33.00
2024-01-15T06:12:16.813Z,29.50
2024-01-15T06:14:44.941Z,30.80
2024-01-15T06:17:13.080Z,31.10
2024-01-15T06:19:41.261Z,31.20
2024-01-15T06:22:09.364Z,30.10
2024-01-15T06:24:37.488Z,31.40
2024-01-15T06:27:05.710Z,38.70
2024-01-15T06:29:34.134Z,40.00
2024-01-15T06:32:02.319Z,29.40
2024-01-15T06:34:30.415Z,31.30
2024-01-15T06:36:58.585Z,10.80
2024-01-15T06:39:26.866Z,31.90
2024-01-15T06:41:55.039Z,29.20
2024-01-15T06:44:23.173Z,33.60
2024-01-15T06:46:53.018Z,31.90
2024-01-15T06:49:21.111Z,28.80
2024-01-15T06:51:49.898Z,29.20
2024-01-15T06:54:18.118Z,29.30
2024-01-15T06:56:46.380Z,28.20
2024-01-15T06:59:17.550Z,30.30
2024-01-15T07:01:47.786Z,29.10
2024-01-15T07:04:16.043Z,29.10
2024-01-15T07:06:44.301Z,31.60
2024-01-15T07:09:12.516Z,27.00
2024-01-15T07:11:45.796Z,26.90
2024-01-15T07:14:14.173Z,25.70
2024-01-15T07:16:43.763Z,28.10
2024-01-15T07:19:13.580Z,30.90
2024-01-15T07:21:43.772Z,31.60
2024-01-15T07:24:12.191Z,28.50
2024-01-15T07:26:40.851Z,28.70
2024-01-15T07:29:09.744Z,29.30
2024-01-15T07:31:38.028Z,29.60
2024-01-15T07:34:06.335Z,30.10
2024-01-15T07:36:34.581Z,28.50
2024-01-15T07:39:02.712Z,31.60
2024-01-15T07:41:30.809Z,30.70
2024-01-15T07:43:58.840Z,28.10
2024-01-15T07:46:26.925Z,27.20
2024-01-15T07:48:57.873Z,31.20
2024-01-15T07:51:26.120Z,27.30
2024-01-15T07:53:56.361Z,27.90
2024-01-15T07:56:24.578Z,30.70
2024-01-15T07:58:52.749Z,31.10
2024-01-15T08:01:20.921Z,30.90
2024-01-15T08:03:49.453Z,32.60
2024-01-15T08:06:17.951Z,29.90
2024-01-15T08:08:46.266Z,29.80
2024-01-15T08:11:14.378Z,33.00
2024-01-15T08:13:42.444Z,26.70
2024-01-15T08:16:10.705Z,32.50
2024-01-15T08:18:38.937Z,31.10
2024-01-15T08:21:07.094Z,32.20
2024-01-15T08:23:36.141Z,28.00
2024-01-15T08:26:04.502Z,26.70
2024-01-15T08:28:32.549Z,29.00
2024-01-15T08:31:00.820Z,26.70
2024-01-15T08:33:29.215Z,27.40
2024-01-15T08:35:57.422Z,27.70
2024-01-15T08:38:26.713Z,35.60
2024-01-15T08:40:58.085Z,30.50
2024-01-15T08:43:26.361Z,30.50
2024-01-15T08:45:54.858Z,29.70
2024-01-15T08:48:22.976Z,28.50
2024-01-15T08:50:53.067Z,29.50
2024-01-15T08:53:21.853Z,32.70
2024-01-15T08:55:50.644Z,30.90
2024-01-15T08:58:19.231Z,35.40
2024-01-15T09:00:47.472Z,31.20
2024-01-15T09:03:15.790Z,35.70
2024-01-15T09:05:44.146Z,34.20
2024-01-15T09:08:12.177Z,34.50
2024-01-15T09:10:40.280Z,32.70
2024-01-15T09:13:09.460Z,37.70
2024-01-15T09:15:37.627Z,40.20
2024-01-15T09:18:08.267Z,36.10
2024-01-15T09:20:36.987Z,34.70
2024-01-15T09:23:05.470Z,37.40
2024-01-15T09:25:33.713Z,37.80
2024-01-15T09:28:01.952Z,33.10
2024-01-15T09:30:30.109Z,29.30
2024-01-15T09:32:58.726Z,36.40
2024-01-15T09:35:26.913Z,32.50
2024-01-15T09:37:54.969Z,32.60
2024-01-15T09:40:23.203Z,32.90
2024-01-15T09:42:52.174Z,34.10
2024-01-15T09:45:20.785Z,30.80
2024-01-15T09:47:48.952Z,32.10
2024-01-15T09:50:18.096Z,31.00
2024-01-15T09:52:47.238Z,32.40
2024-01-15T09:55:17.537Z,30.40
2024-01-15T09:57:47.785Z,30.30
2024-01-15T10:00:19.555Z,50.30
2024-01-15T10:02:48.332Z,39.10
2024-01-15T10:05:16.869Z,30.70
2024-01-15T10:07:47.126Z,33.90
2024-01-15T10:10:15.576Z,33.10
2024-01-15T10:12:43.958Z,36.70
2024-01-15T10:15:13.238Z,34.60
2024-01-15T10:17:42.117Z,33.00
2024-01-15T10:20:12.534Z,35.30
2024-01-15T10:22:43.359Z,31.80
2024-01-15T10:27:41.484Z,26.90
2024-01-15T10:30:11.269Z,30.90
2024-01-15T10:32:39.527Z,28.20
2024-01-15T10:35:09.898Z,27.20
2024-01-15T10:37:38.111Z,26.70
2024-01-15T10:40:07.050Z,29.60
2024-01-15T10:42:35.281Z,29.00
2024-01-15T10:45:03.546Z,26.30
2024-01-15T10:47:32.117Z,26.80
2024-01-15T10:50:00.933Z,25.60
2024-01-15T10:52:30.673Z,22.30
2024-01-15T10:55:03.902Z,33.20
2024-01-15T10:57:35.230Z,33.80
2024-01-15T11:00:06.755Z,36.90
2024-01-15T11:02:37.360Z,32.20
2024-01-15T11:05:05.812Z,36.50
2024-01-15T11:07:34.027Z,29.30
2024-01-15T11:10:04.965Z,34.30
2024-01-15T11:12:33.735Z,35.80
2024-01-15T11:15:05.955Z,40.30
2024-01-15T11:18:04.677Z,41.30
2024-01-15T11:20:33.942Z,31.40
2024-01-15T11:23:02.164Z,29.50
2024-01-15T11:25:38.653Z,24.20
2024-01-15T11:28:07.051Z,27.60
2024-01-15T11:30:38.186Z,26.50
2024-01-15T11:33:08.937Z,29.10
2024-01-15T11:38:30.540Z,26.70
2024-01-15T11:41:00.912Z,26.40
2024-01-15T11:43:32.930Z,30.80
2024-01-15T11:46:05.087Z,30.20
2024-01-15T11:48:45.620Z,28.20
2024-01-15T11:51:14.325Z,27.60
2024-01-15T11:53:48.904Z,27.50
2024-01-15T11:56:18.298Z,27.00
2024-01-15T11:58:46.561Z,22.60
2024-01-15T12:01:15.055Z,23.80
2024-01-15T12:03:43.217Z,23.00
2024-01-15T12:06:12.569Z,20.80
2024-01-15T12:08:40.707Z,22.50
2024-01-15T12:11:15.204Z,20.30
2024-01-15T12:13:43.419Z,24.60
2024-01-15T12:16:11.746Z,24.20
2024-01-15T12:18:40.143Z,25.80
2024-01-15T12:21:09.242Z,21.50
2024-01-15T12:23:37.284Z,25.10
2024-01-15T12:26:05.461Z,23.50
2024-01-15T12:28:33.648Z,23.40
2024-01-15T12:31:06.678Z,23.20
2024-01-15T12:33:35.176Z,23.90
2024-01-15T12:36:03.497Z,26.30
2024-01-15T12:38:31.520Z,23.60
2024-01-15T12:41:02.111Z,23.40
2024-01-15T12:43:30.151Z,28.00
2024-01-15T12:45:58.402Z,24.00
2024-01-15T12:48:26.670Z,22.10
2024-01-15T12:50:55.009Z,23.10
2024-01-15T12:53:23.109Z,23.50
2024-01-15T12:55:51.168Z,22.30
2024-01-15T12:58:21.180Z,29.40
2024-01-15T13:00:50.061Z,28.40
2024-01-15T13:03:18.401Z,25.10
2024-01-15T13:05:47.056Z,26.20
2024-01-15T13:08:15.283Z,25.10
2024-01-15T13:10:43.648Z,21.60
2024-01-15T13:13:12.000Z,25.80
2024-01-15T13:15:40.367Z,25.70
2024-01-15T13:18:08.671Z,25.30
2024-01-15T13:20:36.812Z,24.40
2024-01-15T13:23:05.421Z,27.00
2024-01-15T13:25:35.101Z,25.10
2024-01-15T13:28:04.005Z,23.70
2024-01-15T13:30:32.725Z,25.60
2024-01-15T13:33:05.605Z,29.50
2024-01-15T13:35:34.108Z,27.10
2024-01-15T13:38:02.171Z,26.50
2024-01-15T13:40:30.361Z,22.90
2024-01-15T13:42:58.727Z,25.50
2024-01-15T13:45:26.971Z,22.80
2024-01-15T13:47:55.117Z,28.10
2024-01-15T13:50:25.898Z,25.90
2024-01-15T13:52:54.307Z,24.60
2024-01-15T13:55:22.532Z,25.60
2024-01-15T13:57:50.759Z,24.80
2024-01-15T14:00:21.395Z,20.70
2024-01-15T14:02:49.791Z,22.10
2024-01-15T14:05:18.561Z,23.80
2024-01-15T14:07:46.684Z,25.50
2024-01-15T14:10:14.856Z,19.40
2024-01-15T14:12:43.151Z,17.20
2024-01-15T14:15:11.308Z,21.10
2024-01-15T14:17:39.808Z,18.00
2024-01-15T14:20:10.552Z,17.80
2024-01-15T14:22:38.683Z,18.30
2024-01-15T14:25:06.965Z,19.40
2024-01-15T14:27:35.104Z,17.30
2024-01-15T14:30:04.353Z,18.40
2024-01-15T14:32:32.574Z,19.80
2024-01-15T14:35:01.538Z,17.90
2024-01-15T14:37:29.704Z,16.60
2024-01-15T14:39:57.933Z,16.60
2024-01-15T14:42:26.036Z,14.90
2024-01-15T14:44:54.239Z,15.20
2024-01-15T14:47:25.616Z,14.60
2024-01-15T14:49:53.979Z,15.30
2024-01-15T14:52:22.160Z,16.70
2024-01-15T14:54:51.007Z,14.60
2024-01-15T14:57:19.669Z,12.70
2024-01-15T14:59:48.172Z,13.00
2024-01-15T15:02:16.770Z,14.90
2024-01-15T15:04:47.420Z,14.70
2024-01-15T15:07:18.011Z,13.30
2024-01-15T15:09:46.288Z,14.10
2024-01-15T15:12:14.572Z,15.10
2024-01-15T15:14:52.082Z,16.90
2024-01-15T15:17:28.191Z,13.60
2024-01-15T15:19:56.999Z,14.60
2024-01-15T15:22:25.534Z,15.40
2024-01-15T15:24:54.109Z,13.70
2024-01-15T15:27:22.370Z,11.10
2024-01-15T15:29:52.076Z,10.80
2024-01-15T15:32:20.386Z,13.00
2024-01-15T15:34:48.839Z,12.30
2024-01-15T15:37:18.402Z,12.00
2024-01-15T15:39:47.122Z,11.50
2024-01-15T15:42:15.680Z,11.00
2024-01-15T15:44:47.854Z,10.40
2024-01-15T15:47:16.117Z,10.00
2024-01-15T15:49:44.517Z,9.80
2024-01-15T15:52:12.674Z,11.60
2024-01-15T15:54:41.359Z,12.20
2024-01-15T15:57:10.168Z,11.60
2024-01-15T15:59:38.260Z,11.20
2024-01-15T16:02:06.406Z,13.10
2024-01-15T16:04:34.770Z,19.90
2024-01-15T16:07:04.475Z,15.10
2024-01-15T16:09:32.664Z,10.80
2024-01-15T16:12:00.854Z,9.70
2024-01-15T16:14:28.995Z,13.10
2024-01-15T16:23:13.627Z,24.30
2024-01-15T16:23:27.170Z,25.50
2024-01-15T16:23:42.674Z,30.30
2024-01-15T16:25:23.538Z,23.20
2024-01-15T16:27:52.022Z,23.10
2024-01-15T16:30:29.142Z,24.40
2024-01-15T16:33:02.032Z,26.20
2024-01-15T16:35:30.365Z,28.50
2024-01-15T16:37:58.691Z,36.60
2024-01-15T16:40:26.898Z,31.70
2024-01-15T16:42:55.966Z,29.30
2024-01-15T16:45:24.089Z,31.70
2024-01-15T16:47:52.273Z,25.20
2024-01-15T16:50:20.524Z,24.20
2024-01-15T16:52:48.637Z,28.30
2024-01-15T16:55:16.933Z,29.40
2024-01-15T16:57:44.992Z,31.00
2024-01-15T17:00:13.532Z,28.90
2024-01-15T17:02:41.857Z,28.80
2024-01-15T17:05:11.045Z,26.30
2024-01-15T17:07:39.387Z,27.00
2024-01-15T17:10:07.996Z,27.60
2024-01-15T17:12:36.087Z,25.40
2024-01-15T17:15:04.440Z,27.70
2024-01-15T17:17:33.492Z,27.80
2024-01-15T17:20:01.715Z,25.50
2024-01-15T17:22:30.412Z,24.00
2024-01-15T17:24:59.336Z,22.30
2024-01-15T17:27:27.403Z,19.80
2024-01-15T17:29:56.813Z,19.00
2024-01-15T17:32:25.689Z,22.60
2024-01-15T17:34:54.644Z,24.40
2024-01-15T17:37:22.849Z,22.80
2024-01-15T17:39:50.990Z,26.90
2024-01-15T17:42:19.351Z,18.10
2024-01-15T17:44:48.464Z,12.10
2024-01-15T17:47:16.607Z,12.60
2024-01-15T17:49:45.037Z,8.80
2024-01-15T17:52:13.457Z,8.80
2024-01-15T17:54:41.531Z,7.60
2024-01-15T17:57:09.800Z,7.80
2024-01-15T17:59:37.949Z,6.40
2024-01-15T18:02:06.849Z,6.50
2024-01-15T18:04:35.151Z,3.40
2024-01-15T18:07:03.374Z,2.00
2024-01-15T18:09:31.460Z,3.40
2024-01-15T18:12:01.916Z,2.70
2024-01-15T18:14:30.524Z,2.20
2024-01-15T18:16:58.722Z,3.40
2024-01-15T18:19:26.946Z,1.70
2024-01-15T18:21:55.116Z,2.50
2024-01-15T18:24:23.204Z,1.70
2024-01-15T18:26:54.385Z,1.60
2024-01-15T18:29:23.374Z,2.20
2024-01-15T18:31:51.598Z,1.80
2024-01-15T18:34:19.814Z,2.20
2024-01-15T18:36:48.903Z,3.60
2024-01-15T18:39:18.184Z,1.60
2024-01-15T18:41:46.590Z,3.60
2024-01-15T18:44:14.967Z,2.00
2024-01-15T18:46:44.956Z,2.20
2024-01-15T18:49:14.043Z,2.30
2024-01-15T18:51:42.210Z,2.00
2024-01-15T18:54:10.345Z,2.50
2024-01-15T18:56:42.202Z,2.80
2024-01-15T18:59:10.668Z,1.90
2024-01-15T19:01:39.844Z,2.30
2024-01-15T19:04:08.553Z,5.90
2024-01-15T19:06:36.738Z,3.60
2024-01-15T19:09:05.070Z,3.00
2024-01-15T19:11:33.360Z,2.80
2024-01-15T19:14:01.595Z,3.10
2024-01-15T19:16:29.805Z,3.50
2024-01-15T19:18:58.995Z,2.60
2024-01-15T19:21:27.149Z,2.10
2024-01-15T19:23:55.211Z,2.80
2024-01-15T19:26:23.887Z,1.50
2024-01-15T19:28:52.160Z,3.80
2024-01-15T19:31:20.749Z,3.80
2024-01-15T19:33:49.438Z,2.90
2024-01-15T19:36:25.964Z,2.70
2024-01-15T19:38:54.573Z,3.40
2024-01-15T19:41:23.590Z,3.30
2024-01-15T19:43:51.700Z,3.50
2024-01-15T19:46:19.776Z,4.10
2024-01-15T19:48:48.815Z,3.60
2024-01-15T19:51:16.976Z,3.50
2024-01-15T19:53:45.191Z,2.00
2024-01-15T19:56:18.295Z,1.80
2024-01-15T19:58:46.642Z,1.80
2024-01-15T20:01:14.812Z,2.40
2024-01-15T20:03:45.520Z,2.20
2024-01-15T20:08:45.828Z,2.20
2024-01-15T20:11:15.610Z,1.80
2024-01-15T20:13:44.208Z,3.50
2024-01-15T20:16:14.040Z,3.30
2024-01-15T20:18:43.254Z,2.50
2024-01-15T20:21:11.669Z,3.40
2024-01-15T20:23:50.513Z,5.50
2024-01-15T20:26:24.023Z,4.90
2024-01-15T20:28:52.522Z,3.00
2024-01-15T20:31:20.563Z,5.10
2024-01-15T20:33:48.950Z,5.50
2024-01-15T20:36:17.279Z,6.10
2024-01-15T20:38:45.479Z,5.00
2024-01-15T20:41:13.715Z,6.00
2024-01-15T20:43:42.192Z,6.20
2024-01-15T20:46:10.223Z,5.40
2024-01-15T20:48:38.449Z,4.20
2024-01-15T20:51:06.770Z,5.90
2024-01-15T20:53:34.910Z,8.80
2024-01-15T20:56:03.133Z,6.10
2024-01-15T20:58:31.272Z,8.60
2024-01-15T21:00:59.664Z,6.50
2024-01-15T21:03:27.916Z,8.40
2024-01-15T21:05:56.261Z,8.20
2024-01-15T21:08:24.649Z,7.70
2024-01-15T21:10:52.933Z,10.70
2024-01-15T21:13:20.961Z,9.10
2024-01-15T21:15:49.185Z,8.70
2024-01-15T21:18:18.679Z,7.50
2024-01-15T21:20:46.953Z,6.90
2024-01-15T21:23:15.158Z,5.20
2024-01-15T21:25:43.333Z,2.90
2024-01-15T21:28:11.460Z,3.50
2024-01-15T21:30:39.607Z,4.00
2024-01-15T21:33:09.268Z,2.60
2024-01-15T21:35:37.779Z,1.60
2024-01-15T21:38:05.917Z,2.20
2024-01-15T21:40:34.538Z,3.00
2024-01-15T21:43:02.940Z,2.80
2024-01-15T21:45:31.212Z,2.70
2024-01-15T21:47:59.475Z,2.40
2024-01-15T21:50:27.603Z,3.30
2024-01-15T21:52:55.752Z,3.20
2024-01-15T21:55:23.895Z,3.60
2024-01-15T21:57:52.281Z,4.40
2024-01-15T22:00:20.562Z,5.80
2024-01-15T22:02:49.047Z,1.60
2024-01-15T22:05:18.467Z,3.50
2024-01-15T22:07:46.817Z,2.90
2024-01-15T22:10:15.770Z,2.40
2024-01-15T22:12:44.039Z,1.90
2024-01-15T22:15:14.291Z,2.50
2024-01-15T22:17:42.549Z,2.90
2024-01-15T22:20:11.341Z,2.50
2024-01-15T22:22:39.497Z,2.90
2024-01-15T22:25:07.891Z,3.10
2024-01-15T22:27:35.965Z,2.40
2024-01-15T22:30:04.607Z,2.50
2024-01-15T22:32:33.186Z,3.70
2024-01-15T22:35:01.681Z,3.20
2024-01-15T22:37:29.843Z,2.80
2024-01-15T22:39:57.937Z,2.70
2024-01-15T22:42:26.643Z,2.80
2024-01-15T22:44:55.019Z,4.40
2024-01-15T22:47:23.751Z,4.30
2024-01-15T22:49:52.976Z,2.70
2024-01-15T22:52:21.037Z,2.60
2024-01-15T22:54:50.485Z,3.00
2024-01-15T22:57:21.741Z,3.90
2024-01-15T22:59:49.894Z,4.60
2024-01-15T23:02:19.172Z,5.10
2024-01-15T23:04:47.640Z,5.10
2024-01-15T23:07:16.108Z,4.40
2024-01-15T23:09:44.254Z,5.20
2024-01-15T23:12:12.383Z,4.90
2024-01-15T23:14:40.524Z,4.60
2024-01-15T23:17:08.805Z,6.00
2024-01-15T23:19:37.021Z,5.50
2024-01-15T23:22:05.113Z,4.40
2024-01-15T23:24:33.270Z,4.30
2024-01-15T23:27:01.313Z,4.50
2024-01-15T23:29:29.522Z,4.30
2024-01-15T23:31:57.978Z,4.50
2024-01-15T23:34:26.271Z,4.40
2024-01-15T23:36:54.326Z,5.50
2024-01-15T23:39:22.864Z,4.00
2024-01-15T23:41:52.782Z,4.00
2024-01-15T23:44:21.014Z,3.90
2024-01-15T23:46:49.164Z,5.10
2024-01-15T23:49:17.282Z,3.80
2024-01-15T23:51:45.379Z,2.90
2024-01-15T23:54:13.606Z,3.40
2024-01-15T23:56:41.747Z,3.10
2024-01-15T23:59:10.317Z,2.80
